Flight Track Log - Related Links

Times and Time Zones

All times are in EDT time to prevent confusion due to time zone crossing. See the CTL17 flight status page for this flight to view local times or setup timezone preferences in your user account.

Time Position Orientation Groundspeed Altitude Reporting Facility
EDT Latitude Longitude Course Direction KTS MPH feet Rate Location/Type
Wed 06:58:18 PM 41.7633 -82.3231 291° West 158 182 6,000  Level Cleveland Center
Wed 06:59:25 PM 41.7811 -82.3847 291° West 155 178 6,200  Climbing Cleveland Center
Wed 07:00:20 PM 41.7928 -82.4381 286° West 156 180 6,000 -103 Descending Cleveland Center
Wed 07:01:21 PM 41.8064 -82.4914 289° West 158 182 6,000  Level Cleveland Center
Wed 07:02:28 PM 41.8242 -82.5531 291° West 158 182 6,000  Level Cleveland Center
Wed 07:03:23 PM 41.8358 -82.6036 287° West 155 178 6,000  Level Cleveland Center
Wed 07:04:23 PM 41.8622 -82.6464 310° West 161 185 6,000 50 Level Cleveland Center
Wed 07:05:24 PM 41.9056 -82.6728 336° Northwest 164 189 6,100  Climbing Cleveland Center
Wed 07:06:31 PM 41.9550 -82.6969 340° North 171 197 6,000  Descending Cleveland Center
Wed 07:07:32 PM 41.9983 -82.7178 340° North 167 192 6,100  Climbing Cleveland Center
Wed 07:08:33 PM 42.0439 -82.7472 334° Northwest 168 193 6,000 -197 Descending Cleveland Center
Wed 07:09:34 PM 42.0869 -82.7739 335° Northwest 172 198 5,700 -517 Descending Cleveland Center
Wed 07:10:29 PM 42.1344 -82.7981 339° North 201 231 5,000 -365 Descending Cleveland Center
Wed 07:11:29 PM 42.1797 -82.8247 336° Northwest 182 209 5,000  Level Cleveland Center
Wed 07:12:30 PM 42.2211 -82.8486 337° Northwest 168 193 5,000 -94 Level Cleveland Center
Wed 07:13:37 PM 42.2703 -82.8869 330° Northwest 173 199 4,800 -240 Descending Cleveland Center
Wed 07:15:00 PM 42.3211 -82.9470 319° Northwest  Level FlightAware Approximate
Wed 07:16:40 PM 42.3736 -83.0283 312° West 165 190 4,000  Level Cleveland Center
Wed 07:17:41 PM 42.4061 -83.0719 315° West 165 190 4,100  Climbing Cleveland Center
Wed 07:18:42 PM 42.4383 -83.1208 312° West 163 188 4,000 -47 Descending Cleveland Center
Wed 07:19:49 PM 42.4750 -83.1703 315° West 169 194 4,000 -141 Level Cleveland Center
Wed 07:20:50 PM 42.5092 -83.2194 313° West 188 216 3,700 -492 Descending Cleveland Center
Wed 07:21:51 PM 42.5475 -83.2692 316° Northwest 193 222 3,000 -443 Descending Cleveland Center
Wed 07:22:00 PM 42.5607 -83.2743 312° West  Level FlightAware Approximate
Wed 07:22:52 PM 42.5861 -83.3158 318° Northwest 182 209 2,800  Level Cleveland Center
Wed 07:23:52 PM 42.6292 -83.3458 333° Northwest 168 193 2,400 -545 Descending Cleveland Center
Wed 07:24:53 PM 42.6619 -83.3728 329° Northwest 138 159 1,700 -689 Descending Cleveland Center

Login

Don't have an account? Register now (free) for customized features, flight alerts, and more!